Time;durP1;ratioP1;P1;durP2;ratioP2;P2;SDS_P1;SDS_P2;PMS_P1;PMS_P2;Temp;Humidity;BMP_temperature;BMP_pressure;BME280_temperature;BME280_humidity;BME280_pressure;Samples;Min_cycle;Max_cycle;Signal;HPM_P1;HPM_P2
2023/01/19 00:00:42;;;;;;;11.77;11.07;;;;;;;;;;5025888;28;20048;-59
2023/01/19 00:03:14;;;;;;;13.75;12.85;;;;;;;;;;5025866;28;20056;-59
2023/01/19 00:05:42;;;;;;;12.60;11.73;;;;;;;;;;5023030;28;20048;-59
2023/01/19 00:08:14;;;;;;;11.82;11.10;;;;;;;;;;5026350;28;20095;-59
2023/01/19 00:10:49;;;;;;;12.52;11.73;;;;;;;;;;5026725;28;20059;-59
2023/01/19 00:13:15;;;;;;;11.55;10.82;;;;;;;;;;5028708;28;20025;-59
2023/01/19 00:15:42;;;;;;;11.70;10.93;;;;;;;;;;5027857;28;20025;-59
2023/01/19 00:18:07;;;;;;;12.43;11.63;;;;;;;;;;5027587;28;20481;-59
2023/01/19 00:20:34;;;;;;;11.23;10.52;;;;;;;;;;5026811;28;20049;-59
2023/01/19 00:23:00;;;;;;;10.60;10.00;;;;;;;;;;5026619;28;20043;-60
2023/01/19 00:25:25;;;;;;;11.73;11.02;;;;;;;;;;5027262;28;20029;-59
2023/01/19 00:27:50;;;;;;;12.32;11.55;;;;;;;;;;5027492;28;20033;-59
2023/01/19 00:30:16;;;;;;;12.00;11.15;;;;;;;;;;5027848;28;20033;-60
2023/01/19 00:32:42;;;;;;;13.77;12.75;;;;;;;;;;5025875;28;20029;-59
2023/01/19 00:35:07;;;;;;;11.55;10.75;;;;;;;;;;5026781;28;20775;-59
2023/01/19 00:37:33;;;;;;;12.30;11.50;;;;;;;;;;5025527;28;20034;-59
2023/01/19 00:39:58;;;;;;;12.55;11.57;;;;;;;;;;5027537;28;20037;-59
2023/01/19 00:42:39;;;;;;;11.68;10.88;;;;;;;;;;5025963;28;20033;-59
2023/01/19 00:45:08;;;;;;;12.33;11.53;;;;;;;;;;5027432;28;20040;-59
2023/01/19 00:47:34;;;;;;;12.07;11.27;;;;;;;;;;5025134;28;20033;-58
2023/01/19 00:49:59;;;;;;;11.43;10.73;;;;;;;;;;5025561;28;20027;-59
2023/01/19 00:52:25;;;;;;;11.82;11.13;;;;;;;;;;5025045;28;20025;-59
2023/01/19 00:54:50;;;;;;;12.82;12.02;;;;;;;;;;5020454;28;20439;-59
2023/01/19 00:57:16;;;;;;;14.50;13.27;;;;;;;;;;5027632;28;20162;-59
2023/01/19 00:59:41;;;;;;;11.88;11.07;;;;;;;;;;5024224;28;20030;-59
2023/01/19 01:02:07;;;;;;;12.88;11.90;;;;;;;;;;5025901;28;20038;-59
2023/01/19 01:04:32;;;;;;;11.18;10.48;;;;;;;;;;5026042;28;20033;-61
2023/01/19 01:06:57;;;;;;;10.93;10.23;;;;;;;;;;5026011;28;20029;-58
2023/01/19 01:09:23;;;;;;;11.82;10.77;;;;;;;;;;5025354;28;20033;-59
2023/01/19 01:11:48;;;;;;;12.88;11.90;;;;;;;;;;5026678;28;20040;-59
2023/01/19 01:14:14;;;;;;;12.02;11.15;;;;;;;;;;5027175;28;20418;-58
2023/01/19 01:16:40;;;;;;;12.52;11.73;;;;;;;;;;5025694;28;20594;-59
2023/01/19 01:19:05;;;;;;;11.85;11.05;;;;;;;;;;5025403;28;20044;-59
2023/01/19 01:21:33;;;;;;;11.85;11.10;;;;;;;;;;5025444;28;20045;-59
2023/01/19 01:23:58;;;;;;;13.35;12.50;;;;;;;;;;5027017;28;20112;-58
2023/01/19 01:26:24;;;;;;;11.95;11.15;;;;;;;;;;5024171;28;20416;-59
2023/01/19 01:28:49;;;;;;;11.20;10.50;;;;;;;;;;5025352;28;20108;-59
2023/01/19 01:31:15;;;;;;;13.35;12.20;;;;;;;;;;5025255;28;20030;-59
2023/01/19 01:33:40;;;;;;;10.88;10.07;;;;;;;;;;5025648;28;20029;-59
2023/01/19 01:36:06;;;;;;;13.00;12.20;;;;;;;;;;5024241;28;20520;-59
2023/01/19 01:38:31;;;;;;;12.07;11.32;;;;;;;;;;5024713;28;20045;-59
2023/01/19 01:40:57;;;;;;;11.32;10.63;;;;;;;;;;5024696;28;20486;-58
2023/01/19 01:43:22;;;;;;;13.55;12.65;;;;;;;;;;5025263;28;20052;-59
2023/01/19 01:45:47;;;;;;;11.68;10.88;;;;;;;;;;5026469;28;20037;-59
2023/01/19 01:48:25;;;;;;;13.95;12.98;;;;;;;;;;5008295;28;20107;-59
2023/01/19 01:53:46;;;;;;;12.30;11.45;;;;;;;;;;5025626;28;20120;-59
2023/01/19 01:56:16;;;;;;;11.50;10.80;;;;;;;;;;5025533;28;20045;-59
2023/01/19 01:58:42;;;;;;;11.13;10.43;;;;;;;;;;5024681;28;20040;-59
2023/01/19 02:03:53;;;;;;;11.18;10.50;;;;;;;;;;5026231;28;20152;-59
2023/01/19 02:06:20;;;;;;;10.80;10.10;;;;;;;;;;5024414;28;20045;-59
2023/01/19 02:14:21;;;;;;;12.27;11.35;;;;;;;;;;5025236;28;20300;-59
2023/01/19 02:16:47;;;;;;;12.73;11.93;;;;;;;;;;5025803;28;20068;-59
2023/01/19 02:19:16;;;;;;;11.52;10.73;;;;;;;;;;5033377;28;20855;-59
2023/01/19 02:21:53;;;;;;;11.65;10.85;;;;;;;;;;5024040;28;20051;-59
2023/01/19 02:24:19;;;;;;;11.30;10.60;;;;;;;;;;5025773;28;20045;-59
2023/01/19 02:26:46;;;;;;;11.20;10.48;;;;;;;;;;5025333;28;20040;-59
2023/01/19 02:29:23;;;;;;;11.75;10.98;;;;;;;;;;5033794;28;20367;-63
2023/01/19 02:31:49;;;;;;;12.13;11.20;;;;;;;;;;5024940;28;20037;-59
2023/01/19 02:34:18;;;;;;;12.00;11.20;;;;;;;;;;5026169;28;20095;-59
2023/01/19 02:36:54;;;;;;;12.85;11.95;;;;;;;;;;5025095;28;20091;-60
2023/01/19 02:39:24;;;;;;;11.48;10.68;;;;;;;;;;5022825;28;20132;-59
2023/01/19 02:41:59;;;;;;;10.70;10.00;;;;;;;;;;5023867;28;20383;-59
2023/01/19 02:44:26;;;;;;;11.90;10.45;;;;;;;;;;5007460;28;20363;-59
2023/01/19 02:46:55;;;;;;;13.57;12.52;;;;;;;;;;5024730;28;20033;-59
2023/01/19 02:49:21;;;;;;;10.23;9.63;;;;;;;;;;5024421;28;20037;-59
2023/01/19 02:51:46;;;;;;;11.60;10.90;;;;;;;;;;5025245;28;20124;-59
2023/01/19 02:54:30;;;;;;;10.88;10.18;;;;;;;;;;5025609;28;20065;-59
2023/01/19 02:57:03;;;;;;;11.02;10.13;;;;;;;;;;5024370;28;20044;-59
2023/01/19 02:59:43;;;;;;;11.95;11.15;;;;;;;;;;5024351;28;20038;-59
2023/01/19 03:02:22;;;;;;;12.35;11.45;;;;;;;;;;5024033;28;20029;-59
2023/01/19 03:05:14;;;;;;;12.95;12.15;;;;;;;;;;5023609;28;20033;-59
2023/01/19 03:07:46;;;;;;;12.40;11.60;;;;;;;;;;5023492;28;20116;-59
2023/01/19 03:10:32;;;;;;;13.02;12.13;;;;;;;;;;5025175;28;20029;-59
2023/01/19 03:13:17;;;;;;;11.88;11.10;;;;;;;;;;5028325;28;20040;-59
2023/01/19 03:15:51;;;;;;;12.48;11.52;;;;;;;;;;5027448;28;20783;-59
2023/01/19 03:18:21;;;;;;;11.57;10.88;;;;;;;;;;5029068;28;20128;-59
2023/01/19 03:20:52;;;;;;;11.32;10.63;;;;;;;;;;5027982;28;20025;-59
2023/01/19 03:23:19;;;;;;;10.98;10.27;;;;;;;;;;5029271;28;20076;-59
2023/01/19 03:25:48;;;;;;;12.55;11.65;;;;;;;;;;5027875;28;20037;-59
2023/01/19 03:28:16;;;;;;;11.75;11.05;;;;;;;;;;5029027;28;20029;-59
2023/01/19 03:30:49;;;;;;;11.10;10.32;;;;;;;;;;5026925;28;20052;-59
2023/01/19 03:33:28;;;;;;;11.52;10.82;;;;;;;;;;5029086;28;20029;-59
2023/01/19 03:36:02;;;;;;;11.65;10.85;;;;;;;;;;5027255;28;20064;-59
2023/01/19 03:38:33;;;;;;;11.40;10.70;;;;;;;;;;5028028;28;20029;-59
2023/01/19 03:41:01;;;;;;;11.38;10.68;;;;;;;;;;5028244;28;20037;-58
2023/01/19 03:43:27;;;;;;;12.07;11.18;;;;;;;;;;5028641;28;20375;-59
2023/01/19 03:45:54;;;;;;;11.73;10.93;;;;;;;;;;5029313;28;20033;-60
2023/01/19 03:48:21;;;;;;;11.85;10.82;;;;;;;;;;5028881;28;20025;-59
2023/01/19 03:50:46;;;;;;;11.20;10.50;;;;;;;;;;5027013;28;20107;-59
2023/01/19 03:53:14;;;;;;;11.25;10.55;;;;;;;;;;5028618;28;20393;-59
2023/01/19 03:55:46;;;;;;;11.27;10.50;;;;;;;;;;5027687;28;20379;-59
2023/01/19 03:58:11;;;;;;;12.82;12.02;;;;;;;;;;5026758;28;20057;-59
2023/01/19 04:00:37;;;;;;;12.60;11.57;;;;;;;;;;5027419;28;20471;-59
2023/01/19 04:03:04;;;;;;;15.10;12.45;;;;;;;;;;5028063;28;20065;-59
2023/01/19 04:05:30;;;;;;;11.82;11.13;;;;;;;;;;5025244;28;20083;-59
2023/01/19 04:07:55;;;;;;;12.45;11.65;;;;;;;;;;5027521;28;20061;-59
2023/01/19 04:10:21;;;;;;;13.10;12.20;;;;;;;;;;5027072;28;20029;-60
2023/01/19 04:12:47;;;;;;;11.93;11.23;;;;;;;;;;5024385;28;20097;-59
2023/01/19 04:15:13;;;;;;;14.50;13.13;;;;;;;;;;5028290;28;20348;-59
2023/01/19 04:17:39;;;;;;;12.23;11.40;;;;;;;;;;5026426;28;20112;-60
2023/01/19 04:20:05;;;;;;;12.63;11.82;;;;;;;;;;5026731;28;20116;-60
2023/01/19 04:22:31;;;;;;;11.15;10.45;;;;;;;;;;5026093;28;20374;-59
2023/01/19 04:24:56;;;;;;;12.35;11.55;;;;;;;;;;5028021;28;20471;-60
2023/01/19 04:27:22;;;;;;;12.80;11.70;;;;;;;;;;5027450;28;20041;-59
2023/01/19 04:29:47;;;;;;;11.80;11.00;;;;;;;;;;5026046;28;20060;-59
2023/01/19 04:32:13;;;;;;;11.88;11.18;;;;;;;;;;5026938;28;20376;-60
2023/01/19 04:34:39;;;;;;;12.50;11.65;;;;;;;;;;5027510;28;20030;-59
2023/01/19 04:37:04;;;;;;;13.55;12.65;;;;;;;;;;5027767;28;20044;-59
2023/01/19 04:39:29;;;;;;;13.07;12.18;;;;;;;;;;5025835;28;20025;-59
2023/01/19 04:41:56;;;;;;;11.48;10.68;;;;;;;;;;5026202;28;20109;-59
2023/01/19 04:44:22;;;;;;;13.05;11.82;;;;;;;;;;5027364;28;20037;-59
2023/01/19 04:46:47;;;;;;;11.80;11.00;;;;;;;;;;5026600;28;20705;-59
2023/01/19 04:49:13;;;;;;;13.48;12.48;;;;;;;;;;5026191;28;20061;-59
2023/01/19 04:51:38;;;;;;;15.10;13.40;;;;;;;;;;5026264;28;20083;-59
2023/01/19 04:54:04;;;;;;;14.48;13.35;;;;;;;;;;5027459;28;20274;-59
2023/01/19 04:56:29;;;;;;;13.98;12.98;;;;;;;;;;5026758;28;20073;-59
2023/01/19 04:58:54;;;;;;;12.32;11.52;;;;;;;;;;5024768;28;20064;-59
2023/01/19 05:01:20;;;;;;;12.90;12.10;;;;;;;;;;5025207;28;20033;-59
2023/01/19 05:03:45;;;;;;;13.27;12.18;;;;;;;;;;5022267;28;20065;-59
2023/01/19 05:06:11;;;;;;;12.02;11.27;;;;;;;;;;5027718;28;20033;-59
2023/01/19 05:08:38;;;;;;;14.45;13.35;;;;;;;;;;5025948;28;20060;-60
2023/01/19 05:11:03;;;;;;;10.95;10.23;;;;;;;;;;5026450;28;20033;-60
2023/01/19 05:13:28;;;;;;;11.38;10.68;;;;;;;;;;5025769;28;20037;-59
2023/01/19 05:15:54;;;;;;;12.90;12.02;;;;;;;;;;5026309;28;20731;-59
2023/01/19 05:18:19;;;;;;;13.00;12.18;;;;;;;;;;5025767;28;20033;-59
2023/01/19 05:20:45;;;;;;;13.90;12.75;;;;;;;;;;5025470;28;20065;-59
2023/01/19 05:23:10;;;;;;;13.20;12.02;;;;;;;;;;5026725;28;20036;-59
2023/01/19 05:25:35;;;;;;;13.20;12.27;;;;;;;;;;5026207;28;20450;-59
2023/01/19 05:28:01;;;;;;;12.38;11.57;;;;;;;;;;5027031;28;20041;-59
2023/01/19 05:30:27;;;;;;;13.23;12.32;;;;;;;;;;5025507;28;20136;-59
2023/01/19 05:32:52;;;;;;;12.40;11.60;;;;;;;;;;5023878;28;20032;-59
2023/01/19 05:35:18;;;;;;;13.30;12.30;;;;;;;;;;5026423;28;20135;-59
2023/01/19 05:37:43;;;;;;;13.68;12.75;;;;;;;;;;5024680;28;20147;-59
2023/01/19 05:40:09;;;;;;;12.38;11.50;;;;;;;;;;5026098;28;20041;-58
2023/01/19 05:42:35;;;;;;;12.93;12.05;;;;;;;;;;5024722;28;20048;-59
2023/01/19 05:45:00;;;;;;;12.75;11.85;;;;;;;;;;5025164;28;20037;-59
2023/01/19 05:47:29;;;;;;;13.65;12.73;;;;;;;;;;5025673;28;20655;-59
2023/01/19 05:49:55;;;;;;;15.35;14.35;;;;;;;;;;5024990;28;20039;-59
2023/01/19 05:52:20;;;;;;;13.68;12.88;;;;;;;;;;5026031;28;20029;-58
2023/01/19 05:54:47;;;;;;;12.65;11.85;;;;;;;;;;5021719;28;20041;-58
2023/01/19 05:57:13;;;;;;;12.20;11.45;;;;;;;;;;5024535;28;20548;-58
2023/01/19 05:59:39;;;;;;;12.32;11.52;;;;;;;;;;5023017;28;20075;-58
2023/01/19 06:02:05;;;;;;;12.60;11.80;;;;;;;;;;5023798;28;20064;-59
2023/01/19 06:04:30;;;;;;;12.73;11.93;;;;;;;;;;5022873;28;20034;-59
2023/01/19 06:06:55;;;;;;;12.60;11.70;;;;;;;;;;5023758;28;20053;-59
2023/01/19 06:09:21;;;;;;;11.57;10.88;;;;;;;;;;5022963;28;20436;-60
2023/01/19 06:11:46;;;;;;;12.00;11.18;;;;;;;;;;5019720;28;20052;-59
2023/01/19 06:14:12;;;;;;;12.07;11.07;;;;;;;;;;5024902;28;20037;-59
2023/01/19 06:16:37;;;;;;;11.82;11.02;;;;;;;;;;5020763;28;20062;-59
2023/01/19 06:19:03;;;;;;;11.80;10.77;;;;;;;;;;5022829;28;20051;-59
2023/01/19 06:21:28;;;;;;;11.52;10.82;;;;;;;;;;5018108;28;20037;-59
2023/01/19 06:23:54;;;;;;;12.52;11.52;;;;;;;;;;5022143;28;20381;-59
2023/01/19 06:26:19;;;;;;;12.73;11.88;;;;;;;;;;5026028;28;20191;-60
2023/01/19 06:28:45;;;;;;;12.25;11.52;;;;;;;;;;5024911;28;20091;-59
2023/01/19 06:31:10;;;;;;;11.65;10.85;;;;;;;;;;5024766;28;20032;-59
2023/01/19 06:33:36;;;;;;;11.32;10.63;;;;;;;;;;5024761;28;20037;-59
2023/01/19 06:36:01;;;;;;;11.20;10.50;;;;;;;;;;5025728;28;20030;-59
2023/01/19 06:38:26;;;;;;;11.30;10.60;;;;;;;;;;5024816;28;20041;-59
2023/01/19 06:40:57;;;;;;;13.82;12.82;;;;;;;;;;5024492;28;20116;-59
2023/01/19 06:43:22;;;;;;;13.45;12.40;;;;;;;;;;5024734;28;20029;-59
2023/01/19 06:45:48;;;;;;;11.98;11.20;;;;;;;;;;5024577;28;20029;-60
2023/01/19 06:48:15;;;;;;;12.00;11.30;;;;;;;;;;5025499;28;20034;-58
2023/01/19 06:50:40;;;;;;;13.15;12.25;;;;;;;;;;5022330;28;20033;-59
2023/01/19 06:53:06;;;;;;;12.32;11.60;;;;;;;;;;5024521;28;20048;-59
2023/01/19 06:55:31;;;;;;;12.27;11.50;;;;;;;;;;5024864;28;20139;-59
2023/01/19 06:57:58;;;;;;;12.73;11.82;;;;;;;;;;5024738;28;20608;-59
2023/01/19 07:00:23;;;;;;;12.55;11.75;;;;;;;;;;5024566;28;20037;-59
2023/01/19 07:02:49;;;;;;;13.55;12.65;;;;;;;;;;5021793;28;20047;-59
2023/01/19 07:05:14;;;;;;;13.48;12.55;;;;;;;;;;5023713;28;20041;-59
2023/01/19 07:07:41;;;;;;;12.32;11.52;;;;;;;;;;5023587;28;20052;-59
2023/01/19 07:10:08;;;;;;;13.60;12.70;;;;;;;;;;5020214;28;20043;-60
2023/01/19 07:12:34;;;;;;;12.13;11.32;;;;;;;;;;5021313;28;20106;-59
2023/01/19 07:14:59;;;;;;;13.57;12.68;;;;;;;;;;5024250;28;20121;-61
2023/01/19 07:17:25;;;;;;;13.70;12.60;;;;;;;;;;5024059;28;20025;-61
2023/01/19 07:19:50;;;;;;;11.98;11.18;;;;;;;;;;5022252;28;20059;-59
2023/01/19 07:22:16;;;;;;;14.15;12.77;;;;;;;;;;5022903;28;20127;-60
2023/01/19 07:24:41;;;;;;;11.98;11.07;;;;;;;;;;5022138;28;20038;-59
2023/01/19 07:27:07;;;;;;;12.90;11.95;;;;;;;;;;5023904;28;20116;-61
2023/01/19 07:29:32;;;;;;;11.40;10.68;;;;;;;;;;5021990;28;20065;-59
2023/01/19 07:31:58;;;;;;;12.10;11.30;;;;;;;;;;5023254;28;20044;-62
2023/01/19 07:34:23;;;;;;;12.75;11.95;;;;;;;;;;5025154;28;20033;-60
2023/01/19 07:36:48;;;;;;;11.68;10.88;;;;;;;;;;5022721;28;20438;-59
2023/01/19 07:39:14;;;;;;;11.90;11.00;;;;;;;;;;5024473;28;20756;-59
2023/01/19 07:41:39;;;;;;;13.60;12.70;;;;;;;;;;5023623;28;20040;-61
2023/01/19 07:44:04;;;;;;;12.23;11.43;;;;;;;;;;5023987;28;20030;-60
2023/01/19 07:46:30;;;;;;;14.35;13.43;;;;;;;;;;5022781;28;20048;-60
2023/01/19 07:48:55;;;;;;;12.73;11.93;;;;;;;;;;5024819;28;20022;-61
2023/01/19 07:51:21;;;;;;;13.23;12.07;;;;;;;;;;5021998;28;20053;-59
2023/01/19 07:53:49;;;;;;;13.73;12.85;;;;;;;;;;5021474;28;20029;-59
2023/01/19 07:56:14;;;;;;;14.07;12.98;;;;;;;;;;5022563;28;20083;-58
2023/01/19 07:58:39;;;;;;;12.77;11.98;;;;;;;;;;5025234;28;20038;-59
2023/01/19 08:01:10;;;;;;;13.18;12.32;;;;;;;;;;5026791;28;20045;-60
2023/01/19 08:03:36;;;;;;;12.93;11.98;;;;;;;;;;5025129;28;20053;-61
2023/01/19 08:06:03;;;;;;;13.30;12.25;;;;;;;;;;5027316;28;20065;-60
2023/01/19 08:08:31;;;;;;;12.40;11.60;;;;;;;;;;5026801;28;20048;-61
2023/01/19 08:10:56;;;;;;;12.20;11.40;;;;;;;;;;5024728;28;20446;-61
2023/01/19 08:13:22;;;;;;;11.95;11.25;;;;;;;;;;5024228;28;20182;-62
2023/01/19 08:15:51;;;;;;;12.15;11.23;;;;;;;;;;5025034;28;20095;-62
2023/01/19 08:18:17;;;;;;;12.63;11.73;;;;;;;;;;5027714;28;20037;-62
2023/01/19 08:20:43;;;;;;;13.05;12.25;;;;;;;;;;5024264;28;20037;-60
2023/01/19 08:23:09;;;;;;;12.38;11.57;;;;;;;;;;5022471;28;20352;-60
2023/01/19 08:25:41;;;;;;;12.65;11.85;;;;;;;;;;5026638;28;20052;-60
2023/01/19 08:28:07;;;;;;;11.45;10.68;;;;;;;;;;5025357;28;20049;-60
2023/01/19 08:30:33;;;;;;;13.27;12.38;;;;;;;;;;5026401;28;20041;-60
2023/01/19 08:33:06;;;;;;;13.18;12.27;;;;;;;;;;5026071;28;20044;-60
2023/01/19 08:35:46;;;;;;;13.85;12.95;;;;;;;;;;5025227;28;20047;-60
2023/01/19 08:38:11;;;;;;;12.80;11.82;;;;;;;;;;5025478;28;20041;-60
2023/01/19 08:40:39;;;;;;;15.07;13.65;;;;;;;;;;5024987;28;20051;-60
2023/01/19 08:43:10;;;;;;;12.85;11.63;;;;;;;;;;5026528;28;20426;-60
2023/01/19 08:45:37;;;;;;;11.93;11.13;;;;;;;;;;5026160;28;20489;-60
2023/01/19 08:48:05;;;;;;;12.70;11.90;;;;;;;;;;5025679;28;20439;-60
2023/01/19 08:50:31;;;;;;;12.85;11.95;;;;;;;;;;5025931;28;20065;-60
2023/01/19 08:53:01;;;;;;;11.20;10.50;;;;;;;;;;5025956;28;20021;-61
2023/01/19 08:55:28;;;;;;;12.18;11.38;;;;;;;;;;5026508;28;20042;-61
2023/01/19 08:57:58;;;;;;;11.52;10.82;;;;;;;;;;5024207;28;20040;-61
2023/01/19 09:00:24;;;;;;;12.32;11.52;;;;;;;;;;5026707;28;20554;-60
2023/01/19 09:02:50;;;;;;;13.05;12.15;;;;;;;;;;5024677;28;20040;-60
2023/01/19 09:05:16;;;;;;;11.63;10.82;;;;;;;;;;5025951;28;20029;-60
2023/01/19 09:07:43;;;;;;;12.65;11.85;;;;;;;;;;5026076;28;20033;-59
2023/01/19 09:10:09;;;;;;;12.48;11.68;;;;;;;;;;5026403;28;20041;-60
2023/01/19 09:12:34;;;;;;;13.77;12.52;;;;;;;;;;5024652;28;20052;-60
2023/01/19 09:15:00;;;;;;;12.10;11.35;;;;;;;;;;5026471;28;20021;-59
2023/01/19 09:17:25;;;;;;;12.45;11.57;;;;;;;;;;5023998;28;20371;-57
2023/01/19 09:19:50;;;;;;;13.05;11.95;;;;;;;;;;5022387;28;20112;-59
2023/01/19 09:22:16;;;;;;;11.60;10.85;;;;;;;;;;5025004;28;20195;-58
2023/01/19 09:24:41;;;;;;;12.30;11.50;;;;;;;;;;5024046;28;20063;-58
2023/01/19 09:27:07;;;;;;;11.02;10.32;;;;;;;;;;5024819;28;20072;-58
2023/01/19 09:29:32;;;;;;;11.55;10.75;;;;;;;;;;5022328;28;20067;-58
2023/01/19 09:31:57;;;;;;;11.55;10.75;;;;;;;;;;5025471;28;20045;-56
2023/01/19 09:34:24;;;;;;;12.38;11.48;;;;;;;;;;5026216;28;20033;-56
2023/01/19 09:36:50;;;;;;;10.93;10.23;;;;;;;;;;5025758;28;20494;-56
2023/01/19 09:39:16;;;;;;;11.68;10.93;;;;;;;;;;5023891;28;20041;-55
2023/01/19 09:41:46;;;;;;;10.88;10.07;;;;;;;;;;5023450;28;20046;-54
2023/01/19 09:44:30;;;;;;;11.32;10.30;;;;;;;;;;5024116;28;20038;-55
2023/01/19 09:46:56;;;;;;;10.10;9.50;;;;;;;;;;5024389;28;20033;-56
2023/01/19 09:49:29;;;;;;;12.18;11.15;;;;;;;;;;5024054;28;20347;-54
2023/01/19 09:51:54;;;;;;;11.27;10.57;;;;;;;;;;5023934;28;20034;-54
2023/01/19 09:54:39;;;;;;;11.45;10.68;;;;;;;;;;5024274;28;20030;-51
2023/01/19 09:57:10;;;;;;;10.32;9.73;;;;;;;;;;5024569;28;20090;-56
2023/01/19 09:59:37;;;;;;;12.18;11.38;;;;;;;;;;5023424;28;20041;-54
2023/01/19 10:02:05;;;;;;;12.07;11.27;;;;;;;;;;5021283;28;20652;-55
2023/01/19 10:04:56;;;;;;;12.48;11.68;;;;;;;;;;5024851;28;20526;-57
2023/01/19 10:07:33;;;;;;;10.48;9.85;;;;;;;;;;5024435;28;20056;-55
2023/01/19 10:10:19;;;;;;;11.60;10.80;;;;;;;;;;5016494;28;20071;-54
2023/01/19 10:12:58;;;;;;;11.57;10.88;;;;;;;;;;5023720;28;20059;-56
2023/01/19 10:15:35;;;;;;;12.00;11.02;;;;;;;;;;5025610;28;20037;-54
2023/01/19 10:18:15;;;;;;;11.73;10.93;;;;;;;;;;5024328;28;20033;-55
2023/01/19 10:20:52;;;;;;;13.27;12.37;;;;;;;;;;5025126;28;20434;-55
2023/01/19 10:23:35;;;;;;;11.98;11.07;;;;;;;;;;5025904;28;20034;-55
2023/01/19 10:26:07;;;;;;;11.60;10.80;;;;;;;;;;5024117;28;20061;-55
2023/01/19 10:28:32;;;;;;;10.70;10.00;;;;;;;;;;5025953;28;20041;-55
2023/01/19 10:30:58;;;;;;;11.40;10.52;;;;;;;;;;5024887;28;20076;-56
2023/01/19 10:33:24;;;;;;;11.77;10.98;;;;;;;;;;5026046;28;20041;-56
2023/01/19 10:35:49;;;;;;;10.85;10.15;;;;;;;;;;5025087;28;20080;-54
2023/01/19 10:38:20;;;;;;;12.57;11.77;;;;;;;;;;5025546;28;20056;-54
2023/01/19 10:40:56;;;;;;;;;;;;;;;;;;5024620;28;20047;-55
2023/01/19 10:43:33;;;;;;;10.35;9.65;;;;;;;;;;5025223;28;20314;-55
2023/01/19 10:46:00;;;;;;;11.43;10.65;;;;;;;;;;5026165;28;20052;-55
2023/01/19 10:48:26;;;;;;;12.13;11.23;;;;;;;;;;5025162;28;20393;-55
2023/01/19 10:51:03;;;;;;;11.85;11.00;;;;;;;;;;5022649;28;20044;-54
2023/01/19 10:53:28;;;;;;;12.50;11.70;;;;;;;;;;5024712;28;20041;-55
2023/01/19 10:56:15;;;;;;;11.75;10.95;;;;;;;;;;5024363;28;20091;-55
2023/01/19 10:58:40;;;;;;;11.55;10.82;;;;;;;;;;5024076;28;20128;-55
2023/01/19 11:01:16;;;;;;;12.05;11.25;;;;;;;;;;5024718;28;20113;-56
2023/01/19 11:03:42;;;;;;;12.52;11.63;;;;;;;;;;5024478;28;20069;-54
2023/01/19 11:06:17;;;;;;;11.60;10.90;;;;;;;;;;5024427;28;20091;-54
2023/01/19 11:08:44;;;;;;;11.70;11.00;;;;;;;;;;5022301;28;20034;-55
2023/01/19 11:11:11;;;;;;;11.73;10.93;;;;;;;;;;5023804;28;20026;-56
2023/01/19 11:13:38;;;;;;;13.23;12.10;;;;;;;;;;5023410;28;20186;-56
2023/01/19 11:16:15;;;;;;;11.50;10.70;;;;;;;;;;5025090;28;20034;-54
2023/01/19 11:18:42;;;;;;;13.55;12.65;;;;;;;;;;5023328;28;20052;-55
2023/01/19 11:21:16;;;;;;;11.50;10.73;;;;;;;;;;5024668;28;20037;-51
2023/01/19 11:23:54;;;;;;;11.10;10.32;;;;;;;;;;5022141;28;20047;-56
2023/01/19 11:26:26;;;;;;;11.70;10.80;;;;;;;;;;5023461;28;20117;-55
2023/01/19 11:28:54;;;;;;;13.13;12.13;;;;;;;;;;5022112;28;20037;-53
2023/01/19 11:31:26;;;;;;;13.10;12.18;;;;;;;;;;5017392;28;20037;-54
2023/01/19 11:33:53;;;;;;;;;;;;;;;;;;5017304;28;20038;-54
2023/01/19 11:36:23;;;;;;;11.85;11.15;;;;;;;;;;5024324;28;19979;-57
2023/01/19 11:38:57;;;;;;;11.40;10.65;;;;;;;;;;5020816;28;20057;-57
2023/01/19 11:41:35;;;;;;;12.07;11.27;;;;;;;;;;5025832;28;20048;-56
2023/01/19 11:44:19;;;;;;;11.90;11.10;;;;;;;;;;5027015;28;20034;-59
2023/01/19 11:46:49;;;;;;;11.75;10.95;;;;;;;;;;5026636;28;20055;-56
2023/01/19 11:49:26;;;;;;;11.73;10.93;;;;;;;;;;5026538;28;20340;-57
2023/01/19 11:52:03;;;;;;;12.18;11.38;;;;;;;;;;5025932;28;20368;-57
2023/01/19 11:54:35;;;;;;;11.98;10.98;;;;;;;;;;5027880;28;20039;-57
2023/01/19 11:57:09;;;;;;;11.18;10.48;;;;;;;;;;5028246;28;20029;-57
2023/01/19 11:59:35;;;;;;;12.40;11.60;;;;;;;;;;5025013;28;20048;-54
2023/01/19 12:02:05;;;;;;;11.75;11.05;;;;;;;;;;5025299;28;20029;-52
2023/01/19 12:04:37;;;;;;;11.73;11.02;;;;;;;;;;5026595;28;20033;-52
2023/01/19 12:07:09;;;;;;;11.70;10.95;;;;;;;;;;5026966;28;20434;-54
2023/01/19 12:09:53;;;;;;;12.77;11.80;;;;;;;;;;5025785;28;20041;-53
2023/01/19 12:12:27;;;;;;;11.90;11.18;;;;;;;;;;5025762;28;20033;-55
2023/01/19 12:15:04;;;;;;;12.73;11.90;;;;;;;;;;5025650;28;20068;-54
2023/01/19 12:17:33;;;;;;;11.95;11.15;;;;;;;;;;5026505;28;20047;-54
2023/01/19 12:20:30;;;;;;;11.73;10.95;;;;;;;;;;5024672;28;20036;-52
2023/01/19 12:23:35;;;;;;;11.95;11.25;;;;;;;;;;5024173;28;20523;-53
2023/01/19 12:26:26;;;;;;;11.48;10.77;;;;;;;;;;5025790;28;20465;-54
2023/01/19 12:28:53;;;;;;;;;;;;;;;;;;5024627;28;20132;-55
2023/01/19 12:31:21;;;;;;;10.00;9.40;;;;;;;;;;5024768;28;19974;-54
2023/01/19 12:33:46;;;;;;;10.95;10.25;;;;;;;;;;5022985;28;20455;-52
2023/01/19 12:36:34;;;;;;;11.85;11.07;;;;;;;;;;5026026;28;20056;-56
2023/01/19 12:39:14;;;;;;;11.02;10.32;;;;;;;;;;5025015;28;20029;-53
2023/01/19 12:41:41;;;;;;;11.07;10.38;;;;;;;;;;5023036;28;20033;-57
2023/01/19 12:44:09;;;;;;;11.68;10.98;;;;;;;;;;5022273;28;20029;-50
2023/01/19 12:46:37;;;;;;;11.65;10.95;;;;;;;;;;5022975;28;20029;-54
2023/01/19 12:49:20;;;;;;;11.05;10.35;;;;;;;;;;5024579;28;20629;-53
2023/01/19 12:51:46;;;;;;;12.23;11.43;;;;;;;;;;5025059;28;20434;-54
2023/01/19 12:54:25;;;;;;;11.38;10.68;;;;;;;;;;5022828;28;20480;-51
2023/01/19 12:57:07;;;;;;;12.55;11.75;;;;;;;;;;5025181;28;20041;-54
2023/01/19 12:59:35;;;;;;;11.13;10.40;;;;;;;;;;5024084;28;20075;-56
2023/01/19 13:02:19;;;;;;;12.07;11.32;;;;;;;;;;5025775;28;20030;-52
2023/01/19 13:05:09;;;;;;;10.77;10.07;;;;;;;;;;5024187;28;20534;-53
2023/01/19 13:08:05;;;;;;;11.63;10.90;;;;;;;;;;5023721;28;20041;-54
2023/01/19 13:10:59;;;;;;;12.70;11.80;;;;;;;;;;5026357;28;20112;-56
2023/01/19 13:13:37;;;;;;;11.27;10.57;;;;;;;;;;5024370;28;20064;-56
2023/01/19 13:16:17;;;;;;;11.38;10.63;;;;;;;;;;5023988;28;20499;-52
2023/01/19 13:19:05;;;;;;;11.32;10.63;;;;;;;;;;5024429;28;20042;-56
2023/01/19 13:21:34;;;;;;;11.50;10.80;;;;;;;;;;5023517;28;20087;-56
2023/01/19 13:24:05;;;;;;;11.32;10.63;;;;;;;;;;5023135;28;20124;-55
2023/01/19 13:26:37;;;;;;;11.75;10.95;;;;;;;;;;5024128;28;20070;-55
2023/01/19 13:29:12;;;;;;;11.32;10.63;;;;;;;;;;5024682;28;20312;-55
2023/01/19 13:31:41;;;;;;;10.73;10.05;;;;;;;;;;5023103;28;20098;-54
2023/01/19 13:34:15;;;;;;;11.20;10.30;;;;;;;;;;5024554;28;20025;-53
2023/01/19 13:36:49;;;;;;;11.05;10.35;;;;;;;;;;5025020;28;20049;-54
2023/01/19 13:39:39;;;;;;;11.70;10.93;;;;;;;;;;5024889;28;20116;-53
2023/01/19 13:42:13;;;;;;;12.63;11.82;;;;;;;;;;5024655;28;20103;-54
2023/01/19 13:44:52;;;;;;;11.43;10.65;;;;;;;;;;5032698;28;20033;-54
2023/01/19 13:47:44;;;;;;;12.35;11.55;;;;;;;;;;5025251;28;20037;-53
2023/01/19 13:50:25;;;;;;;11.23;10.43;;;;;;;;;;5016256;28;20056;-55
2023/01/19 13:52:54;;;;;;;;;;;;;;;;;;5024177;28;20685;-51
2023/01/19 13:55:20;;;;;;;10.80;10.10;;;;;;;;;;5025876;28;19924;-52
2023/01/19 13:57:47;;;;;;;10.68;10.05;;;;;;;;;;5025675;28;20045;-51
2023/01/19 14:00:22;;;;;;;11.05;10.35;;;;;;;;;;5018421;28;20317;-55
2023/01/19 14:02:55;;;;;;;10.73;10.05;;;;;;;;;;5022995;28;20064;-54
2023/01/19 14:05:33;;;;;;;12.00;11.20;;;;;;;;;;5021450;28;20033;-55
2023/01/19 14:08:03;;;;;;;12.20;11.18;;;;;;;;;;5020649;28;20053;-54
2023/01/19 14:10:32;;;;;;;11.57;10.88;;;;;;;;;;5025899;28;20045;-55
2023/01/19 14:13:21;;;;;;;11.07;10.38;;;;;;;;;;5022769;28;20037;-55
2023/01/19 14:15:48;;;;;;;11.40;10.70;;;;;;;;;;5022576;28;20079;-55
2023/01/19 14:18:17;;;;;;;11.27;10.57;;;;;;;;;;5025100;28;20526;-53
2023/01/19 14:20:53;;;;;;;12.50;11.70;;;;;;;;;;5024042;28;20041;-54
2023/01/19 14:23:35;;;;;;;10.75;10.05;;;;;;;;;;5024719;28;20025;-54
2023/01/19 14:26:00;;;;;;;12.20;11.35;;;;;;;;;;5023427;28;20085;-52
2023/01/19 14:28:42;;;;;;;11.85;11.05;;;;;;;;;;5023070;28;20049;-53
2023/01/19 14:31:19;;;;;;;11.95;11.15;;;;;;;;;;5022932;28;20030;-57
2023/01/19 14:33:46;;;;;;;10.85;10.05;;;;;;;;;;5023963;28;20029;-55
2023/01/19 14:36:35;;;;;;;11.18;10.48;;;;;;;;;;5025665;28;20097;-51
2023/01/19 14:39:01;;;;;;;11.63;10.48;;;;;;;;;;5022185;28;20161;-52
2023/01/19 14:41:27;;;;;;;10.23;9.45;;;;;;;;;;5022259;28;20390;-56
2023/01/19 14:43:57;;;;;;;10.60;9.90;;;;;;;;;;5021549;28;20041;-56